Time;durP1;ratioP1;P1;durP2;ratioP2;P2;SDS_P1;SDS_P2;PMS_P1;PMS_P2;Temp;Humidity;BMP_temperature;BMP_pressure;BME280_temperature;BME280_humidity;BME280_pressure;Samples;Min_cycle;Max_cycle;Signal;HPM_P1;HPM_P2
2023/05/30 00:00:46;;;;;;;8.70;4.63;;;;;;;13.95;95.98;96670.28;7399658;19;20732;-73
2023/05/30 00:03:13;;;;;;;5.50;3.93;;;;;;;13.82;96.94;96648.28;7399983;19;20407;-73
2023/05/30 00:05:40;;;;;;;5.87;5.43;;;;;;;13.90;98.70;96647.38;7396880;19;20409;-73
2023/05/30 00:08:07;;;;;;;8.17;4.83;;;;;;;14.10;97.13;96660.78;7399923;19;20411;-72
2023/05/30 00:10:34;;;;;;;6.67;4.13;;;;;;;14.12;96.81;96664.66;7397856;19;20359;-73
2023/05/30 00:13:02;;;;;;;5.87;4.00;;;;;;;14.06;95.50;96639.44;7399281;19;20430;-73
2023/05/30 00:15:31;;;;;;;6.67;4.67;;;;;;;14.13;95.46;96650.25;7398214;19;20389;-73
2023/05/30 00:18:00;;;;;;;5.10;4.23;;;;;;;13.87;98.94;96640.06;7400216;19;20385;-73
2023/05/30 00:20:29;;;;;;;4.53;4.13;;;;;;;13.37;100.00;96592.78;7397733;19;20373;-73
2023/05/30 00:23:00;;;;;;;3.93;3.50;;;;;;;13.71;100.00;96654.44;7398527;19;20741;-73
2023/05/30 00:25:27;;;;;;;4.00;3.40;;;;;;;13.77;99.64;96650.44;7398341;19;20396;-73
2023/05/30 00:27:54;;;;;;;6.00;3.90;;;;;;;13.75;100.00;96657.94;7397343;19;20382;-73
2023/05/30 00:30:21;;;;;;;4.47;4.03;;;;;;;13.77;100.00;96655.75;7397942;19;20377;-72
2023/05/30 00:32:48;;;;;;;5.00;4.50;;;;;;;13.54;100.00;96658.13;7395564;19;20436;-73
2023/05/30 00:35:15;;;;;;;14.90;4.50;;;;;;;13.50;100.00;96650.06;7398012;19;20341;-73
2023/05/30 00:37:43;;;;;;;3.93;3.63;;;;;;;13.50;100.00;96644.00;7397249;19;20377;-73
2023/05/30 00:40:11;;;;;;;6.03;4.20;;;;;;;13.21;100.00;96637.06;7399624;19;20374;-73
2023/05/30 00:42:39;;;;;;;8.40;4.50;;;;;;;12.95;100.00;96638.19;7395110;19;20436;-73
2023/05/30 00:45:07;;;;;;;5.17;4.07;;;;;;;13.10;100.00;96626.13;7397273;19;20889;-72
2023/05/30 00:47:35;;;;;;;6.27;4.80;;;;;;;13.07;100.00;96641.94;7397375;19;20381;-73
2023/05/30 00:50:03;;;;;;;4.27;3.97;;;;;;;12.99;100.00;96644.38;7398003;19;20408;-73
2023/05/30 00:52:30;;;;;;;3.33;3.03;;;;;;;12.72;100.00;96632.56;7396177;19;20428;-73
2023/05/30 00:55:02;;;;;;;8.50;4.87;;;;;;;12.37;100.00;96611.00;7398640;19;20468;-73
2023/05/30 00:57:33;;;;;;;4.80;3.90;;;;;;;12.75;100.00;96648.94;7398041;19;20359;-73
2023/05/30 01:00:03;;;;;;;4.30;3.90;;;;;;;12.92;100.00;96635.41;7399902;19;20349;-73
2023/05/30 01:02:35;;;;;;;5.70;4.40;;;;;;;12.99;100.00;96652.34;7395482;19;20389;-73
2023/05/30 01:05:02;;;;;;;5.67;4.07;;;;;;;12.53;100.00;96647.47;7398401;19;20361;-73
2023/05/30 01:07:31;;;;;;;5.93;3.80;;;;;;;12.67;100.00;96647.91;7396493;19;20374;-73
2023/05/30 01:09:59;;;;;;;3.97;3.60;;;;;;;12.52;100.00;96638.72;7398139;19;20447;-73
2023/05/30 01:12:43;;;;;;;4.57;4.00;;;;;;;12.49;100.00;96604.16;7396333;19;20436;-72
2023/05/30 01:15:48;;;;;;;5.37;4.17;;;;;;;12.38;100.00;96657.63;7395835;19;20384;-72
2023/05/30 01:18:40;;;;;;;8.70;6.07;;;;;;;12.37;100.00;96664.03;7393008;19;20392;-72
2023/05/30 01:21:10;;;;;;;5.07;3.50;;;;;;;12.52;100.00;96653.88;7397324;19;20464;-72
2023/05/30 01:24:06;;;;;;;5.53;4.17;;;;;;;12.67;100.00;96661.94;7394475;19;20459;-72
2023/05/30 01:26:46;;;;;;;3.83;3.37;;;;;;;12.56;100.00;96666.16;7395629;19;20462;-72
2023/05/30 01:29:20;;;;;;;6.13;3.80;;;;;;;12.56;100.00;96655.56;7397938;19;20379;-72
2023/05/30 01:31:48;;;;;;;5.47;4.33;;;;;;;11.88;100.00;96664.97;7397230;19;20381;-72
2023/05/30 01:34:15;;;;;;;7.13;4.10;;;;;;;11.91;100.00;96659.06;7398887;19;20379;-73
2023/05/30 01:36:44;;;;;;;5.93;4.90;;;;;;;11.74;100.00;96657.28;7397415;19;20361;-72
2023/05/30 01:39:11;;;;;;;7.20;4.47;;;;;;;11.58;100.00;96629.84;7394038;19;20397;-72
2023/05/30 01:42:08;;;;;;;5.13;4.60;;;;;;;11.94;100.00;96643.28;7395841;19;20380;-73
2023/05/30 01:44:42;;;;;;;8.40;4.57;;;;;;;11.67;100.00;96622.63;7394622;19;20377;-74
2023/05/30 01:47:18;;;;;;;6.53;4.27;;;;;;;11.61;100.00;96624.66;7396741;19;20391;-73
2023/05/30 01:50:04;;;;;;;5.23;4.07;;;;;;;11.90;100.00;96623.06;7396295;19;20381;-74
2023/05/30 01:52:36;;;;;;;6.03;4.20;;;;;;;11.95;100.00;96644.81;7395904;19;20442;-74
2023/05/30 01:55:07;;;;;;;6.77;5.40;;;;;;;12.06;100.00;96616.81;7397684;19;20370;-74
2023/05/30 01:57:40;;;;;;;4.60;4.20;;;;;;;12.10;100.00;96624.88;7395043;19;20393;-74
2023/05/30 02:00:10;;;;;;;4.30;4.00;;;;;;;12.28;100.00;96636.81;7396716;19;20882;-74
2023/05/30 02:02:43;;;;;;;6.00;4.37;;;;;;;12.00;100.00;96604.06;7394747;19;20835;-74
2023/05/30 02:05:11;;;;;;;5.47;4.97;;;;;;;12.27;100.00;96645.09;7394058;19;20393;-74
2023/05/30 02:07:38;;;;;;;6.97;4.90;;;;;;;12.12;100.00;96660.53;7394817;19;20405;-74
2023/05/30 02:10:05;;;;;;;5.70;3.97;;;;;;;11.89;100.00;96613.56;7393381;19;20479;-73
2023/05/30 02:12:34;;;;;;;4.73;4.10;;;;;;;11.65;100.00;96601.75;7394409;19;20421;-74
2023/05/30 02:15:01;;;;;;;5.60;4.20;;;;;;;11.85;100.00;96634.63;7393900;19;20416;-73
2023/05/30 02:17:28;;;;;;;4.80;4.10;;;;;;;11.84;100.00;96644.44;7395414;19;20824;-73
2023/05/30 02:19:57;;;;;;;9.67;7.00;;;;;;;11.77;100.00;96625.63;7405216;19;20348;-74
2023/05/30 02:22:24;;;;;;;9.07;6.03;;;;;;;11.78;100.00;96650.25;7425654;19;20421;-74
2023/05/30 02:24:52;;;;;;;5.83;4.70;;;;;;;11.75;100.00;96659.63;7423629;19;20801;-76
2023/05/30 02:27:20;;;;;;;5.67;5.10;;;;;;;11.60;100.00;96649.59;7409052;19;20807;-74
2023/05/30 02:29:47;;;;;;;4.87;4.37;;;;;;;11.57;100.00;96662.72;7398529;19;20889;-73
2023/05/30 02:32:14;;;;;;;6.47;4.17;;;;;;;11.59;100.00;96663.94;7399683;19;20412;-73
2023/05/30 02:34:41;;;;;;;5.63;4.30;;;;;;;11.18;100.00;96622.38;7401753;19;20392;-74
2023/05/30 02:37:08;;;;;;;5.93;4.80;;;;;;;11.35;100.00;96630.19;7403447;19;20383;-74
2023/05/30 02:39:37;;;;;;;7.50;4.97;;;;;;;11.50;100.00;96650.78;7402198;19;20368;-73
2023/05/30 02:42:05;;;;;;;7.10;4.50;;;;;;;11.28;100.00;96626.50;7402725;19;20428;-74
2023/05/30 02:44:34;;;;;;;7.93;4.90;;;;;;;11.10;100.00;96652.31;7399607;19;20424;-73
2023/05/30 02:47:02;;;;;;;8.83;5.57;;;;;;;11.00;100.00;96627.00;7402448;19;20408;-73
2023/05/30 02:49:30;;;;;;;6.30;4.60;;;;;;;10.90;100.00;96595.63;7401253;19;20416;-73
2023/05/30 02:51:58;;;;;;;8.40;5.20;;;;;;;11.18;100.00;96630.31;7401651;19;20444;-73
2023/05/30 02:54:31;;;;;;;6.17;5.43;;;;;;;11.16;100.00;96637.81;7400560;19;20944;-73
2023/05/30 02:57:21;;;;;;;7.73;4.37;;;;;;;11.32;100.00;96656.53;7400719;19;20415;-73
2023/05/30 03:00:01;;;;;;;4.53;4.13;;;;;;;11.36;100.00;96631.75;7401539;19;20443;-73
2023/05/30 03:02:28;;;;;;;4.83;4.40;;;;;;;11.45;100.00;96653.63;7398839;19;20848;-73
2023/05/30 03:04:55;;;;;;;5.57;4.70;;;;;;;11.39;100.00;96660.22;7399773;19;20947;-73
2023/05/30 03:07:22;;;;;;;7.03;5.03;;;;;;;11.29;100.00;96636.00;7400368;19;20396;-73
2023/05/30 03:09:50;;;;;;;5.33;4.20;;;;;;;11.50;100.00;96663.25;7398704;19;20805;-73
2023/05/30 03:12:19;;;;;;;6.67;4.33;;;;;;;11.36;100.00;96652.16;7399202;19;20424;-73
2023/05/30 03:14:46;;;;;;;7.43;4.77;;;;;;;11.30;100.00;96662.16;7401742;19;20381;-73
2023/05/30 03:17:13;;;;;;;5.83;4.70;;;;;;;11.33;100.00;96661.50;7399995;19;20936;-73
2023/05/30 03:19:41;;;;;;;4.97;4.23;;;;;;;11.15;100.00;96630.97;7401495;19;20376;-73
2023/05/30 03:22:08;;;;;;;6.53;5.63;;;;;;;10.96;100.00;96626.09;7399090;19;20432;-73
2023/05/30 03:24:35;;;;;;;6.83;4.50;;;;;;;11.01;100.00;96644.44;7402252;19;20381;-73
2023/05/30 03:27:03;;;;;;;9.37;5.13;;;;;;;11.10;100.00;96642.50;7400322;19;20388;-73
2023/05/30 03:29:31;;;;;;;5.50;4.17;;;;;;;11.08;100.00;96649.97;7398343;19;20920;-73
2023/05/30 03:32:00;;;;;;;5.40;4.27;;;;;;;11.10;100.00;96631.16;7399366;19;20421;-73
2023/05/30 03:34:27;;;;;;;4.70;4.27;;;;;;;11.11;100.00;96628.19;7398273;19;20385;-73
2023/05/30 03:36:54;;;;;;;6.97;6.00;;;;;;;11.15;100.00;96668.78;7401305;19;20451;-73
2023/05/30 03:39:21;;;;;;;5.23;4.40;;;;;;;10.90;100.00;96637.97;7400010;19;20379;-72
2023/05/30 03:41:48;;;;;;;6.47;4.80;;;;;;;11.19;100.00;96661.75;7399448;19;20381;-73
2023/05/30 03:44:16;;;;;;;5.20;4.60;;;;;;;11.23;100.00;96661.91;7399081;19;20392;-73
2023/05/30 03:46:44;;;;;;;5.53;4.10;;;;;;;11.08;100.00;96635.97;7400196;19;20360;-73
2023/05/30 03:49:11;;;;;;;5.10;4.30;;;;;;;11.26;100.00;96663.88;7398508;19;20395;-73
2023/05/30 03:51:38;;;;;;;9.10;5.97;;;;;;;11.22;100.00;96636.53;7399250;19;20397;-73
2023/05/30 03:54:06;;;;;;;6.07;4.90;;;;;;;11.28;100.00;96650.34;7398017;19;20380;-73
2023/05/30 03:56:33;;;;;;;5.37;4.30;;;;;;;11.40;100.00;96667.06;7399823;19;20372;-73
2023/05/30 03:59:00;;;;;;;6.30;4.00;;;;;;;11.38;100.00;96649.97;7398286;19;20351;-73
2023/05/30 04:01:30;;;;;;;4.77;4.23;;;;;;;11.51;100.00;96678.06;7399741;19;20444;-73
2023/05/30 04:03:57;;;;;;;9.43;4.50;;;;;;;11.47;100.00;96650.66;7397755;19;20461;-73
2023/05/30 04:06:24;;;;;;;5.97;4.77;;;;;;;11.59;100.00;96679.84;7399930;19;20372;-73
2023/05/30 04:08:51;;;;;;;4.30;3.90;;;;;;;11.47;100.00;96662.00;7398423;19;20380;-73
2023/05/30 04:11:18;;;;;;;6.50;3.77;;;;;;;11.74;100.00;96681.13;7399743;19;20372;-72
2023/05/30 04:13:45;;;;;;;4.13;3.60;;;;;;;11.70;100.00;96693.47;7395594;19;20452;-73
2023/05/30 04:16:13;;;;;;;4.50;4.10;;;;;;;11.59;100.00;96689.66;7400064;19;20440;-73
2023/05/30 04:18:43;;;;;;;4.70;4.13;;;;;;;11.47;100.00;96653.28;7397889;19;20364;-73
2023/05/30 04:21:12;;;;;;;21.13;4.07;;;;;;;11.87;100.00;96700.53;7399254;19;20896;-73
2023/05/30 04:23:41;;;;;;;6.80;3.83;;;;;;;11.89;100.00;96685.09;7396010;19;20991;-74
2023/05/30 04:26:09;;;;;;;12.13;4.53;;;;;;;12.03;100.00;96699.63;7397146;19;20391;-74
2023/05/30 04:28:38;;;;;;;5.67;4.13;;;;;;;11.86;100.00;96673.25;7398124;19;20375;-74
2023/05/30 04:31:05;;;;;;;8.07;4.80;;;;;;;11.98;100.00;96696.38;7399193;19;20725;-73
2023/05/30 04:33:48;;;;;;;6.30;4.27;;;;;;;12.19;100.00;96702.44;7396429;19;20430;-74
2023/05/30 04:36:19;;;;;;;4.53;4.13;;;;;;;12.20;100.00;96690.72;7396749;19;20384;-73
2023/05/30 04:38:51;;;;;;;4.63;3.97;;;;;;;12.19;100.00;96709.63;7398744;19;20714;-74
2023/05/30 04:41:20;;;;;;;4.90;3.77;;;;;;;12.01;100.00;96688.53;7397199;19;20405;-74
2023/05/30 04:43:52;;;;;;;7.83;4.57;;;;;;;12.29;100.00;96707.34;7397100;19;20417;-74
2023/05/30 04:46:23;;;;;;;11.33;3.70;;;;;;;12.42;100.00;96706.25;7395487;19;20476;-74
2023/05/30 04:48:55;;;;;;;6.50;4.20;;;;;;;12.32;100.00;96711.19;7399093;19;20752;-74
2023/05/30 04:51:23;;;;;;;5.50;3.80;;;;;;;12.29;100.00;96698.59;7397674;19;20376;-74
2023/05/30 04:53:50;;;;;;;4.77;4.10;;;;;;;12.58;100.00;96708.28;7392838;19;20829;-74
2023/05/30 04:56:20;;;;;;;5.00;4.23;;;;;;;12.25;100.00;96710.94;7397430;19;20354;-74
2023/05/30 04:58:53;;;;;;;3.97;3.63;;;;;;;12.36;100.00;96704.91;7395939;19;20401;-74
2023/05/30 05:01:23;;;;;;;8.13;3.80;;;;;;;12.31;100.00;96702.47;7397339;19;20910;-74
2023/05/30 05:03:51;;;;;;;6.30;4.30;;;;;;;12.45;100.00;96680.97;7397970;19;20351;-74
2023/05/30 05:06:18;;;;;;;4.40;3.77;;;;;;;12.45;100.00;96680.19;7395407;19;20959;-74
2023/05/30 05:08:45;;;;;;;4.10;3.70;;;;;;;12.57;100.00;96704.06;7398274;19;20345;-73
2023/05/30 05:11:14;;;;;;;7.13;3.80;;;;;;;12.72;100.00;96700.78;7398498;19;20409;-74
2023/05/30 05:13:41;;;;;;;5.30;4.17;;;;;;;12.81;100.00;96733.28;7394958;19;20796;-74
2023/05/30 05:16:08;;;;;;;3.77;3.47;;;;;;;12.70;100.00;96697.69;7398880;19;20421;-74
2023/05/30 05:18:35;;;;;;;11.60;4.27;;;;;;;12.98;100.00;96706.53;7395655;19;20376;-74
2023/05/30 05:21:02;;;;;;;6.23;3.77;;;;;;;13.16;100.00;96723.00;7397367;19;20422;-74
2023/05/30 05:23:30;;;;;;;4.23;3.33;;;;;;;13.25;100.00;96709.66;7394273;19;20768;-74
2023/05/30 05:25:57;;;;;;;6.53;4.10;;;;;;;13.45;100.00;96729.97;7395684;19;20952;-74
2023/05/30 05:28:24;;;;;;;8.17;4.60;;;;;;;13.37;100.00;96717.63;7397191;19;20380;-73
2023/05/30 05:30:51;;;;;;;7.30;3.77;;;;;;;13.66;100.00;96715.78;7397523;19;20393;-74
2023/05/30 05:33:19;;;;;;;4.53;3.53;;;;;;;13.74;100.00;96720.94;7394360;19;20420;-74
2023/05/30 05:35:46;;;;;;;8.90;3.60;;;;;;;13.57;100.00;96684.03;7397221;19;20380;-74
2023/05/30 05:38:13;;;;;;;5.50;3.67;;;;;;;13.83;100.00;96724.25;7395966;19;20355;-74
2023/05/30 05:40:41;;;;;;;4.23;3.83;;;;;;;14.16;100.00;96718.72;7398609;19;20473;-74
2023/05/30 05:43:08;;;;;;;5.30;3.73;;;;;;;14.40;100.00;96730.34;7395040;19;20526;-74
2023/05/30 05:45:35;;;;;;;8.10;3.70;;;;;;;14.45;100.00;96732.81;7397460;19;20889;-74
2023/05/30 05:48:02;;;;;;;8.33;3.57;;;;;;;14.23;100.00;96712.81;7395703;19;20373;-74
2023/05/30 05:50:30;;;;;;;6.80;3.87;;;;;;;14.38;100.00;96717.38;7398334;19;20344;-74
2023/05/30 05:52:57;;;;;;;5.00;3.13;;;;;;;14.75;100.00;96731.28;7394053;19;20987;-74
2023/05/30 05:55:24;;;;;;;7.47;4.13;;;;;;;15.16;100.00;96739.88;7397058;19;20377;-74
2023/05/30 05:57:52;;;;;;;3.70;3.00;;;;;;;15.25;100.00;96731.72;7395373;19;20885;-74
2023/05/30 06:00:22;;;;;;;3.60;2.87;;;;;;;15.15;97.28;96726.91;7394169;19;20722;-74
2023/05/30 06:02:49;;;;;;;7.27;4.50;;;;;;;15.38;95.20;96744.56;7394338;19;20441;-74
2023/05/30 06:05:16;;;;;;;7.17;3.60;;;;;;;15.57;92.71;96746.50;7391158;19;20341;-74
2023/05/30 06:07:43;;;;;;;3.60;3.10;;;;;;;15.43;89.70;96740.09;7396923;19;20341;-74
2023/05/30 06:10:10;;;;;;;3.77;3.20;;;;;;;15.41;92.01;96748.44;7393355;19;20701;-74
2023/05/30 06:12:37;;;;;;;4.80;3.27;;;;;;;15.28;93.10;96733.69;7394089;19;20807;-74
2023/05/30 06:15:06;;;;;;;6.13;4.10;;;;;;;15.62;91.82;96745.47;7393556;19;20884;-74
2023/05/30 06:17:33;;;;;;;4.60;3.10;;;;;;;15.82;90.59;96731.06;7396580;19;20351;-74
2023/05/30 06:19:59;;;;;;;4.30;3.17;;;;;;;15.70;86.93;96712.53;7393581;19;20394;-74
2023/05/30 06:22:26;;;;;;;7.83;4.30;;;;;;;16.13;86.19;96737.38;7394109;19;20801;-73
2023/05/30 06:24:53;;;;;;;4.10;3.33;;;;;;;16.52;84.52;96749.56;7393828;19;20361;-74
2023/05/30 06:27:21;;;;;;;6.60;3.50;;;;;;;16.71;82.60;96748.81;7396549;19;20369;-74
2023/05/30 06:29:47;;;;;;;4.13;2.73;;;;;;;16.93;81.11;96755.25;7393304;19;20378;-74
2023/05/30 06:32:15;;;;;;;3.73;2.60;;;;;;;16.63;79.74;96735.66;7394464;19;20410;-74
2023/05/30 06:34:45;;;;;;;4.10;3.17;;;;;;;16.77;77.91;96741.25;7393071;19;20945;-74
2023/05/30 06:37:15;;;;;;;5.50;3.70;;;;;;;17.06;78.27;96766.53;7395150;19;20484;-74
2023/05/30 06:39:42;;;;;;;5.90;2.97;;;;;;;17.14;77.35;96760.19;7393991;19;20463;-74
2023/05/30 06:42:13;;;;;;;4.93;3.20;;;;;;;16.73;76.62;96754.56;7394399;19;20835;-74
2023/05/30 06:44:43;;;;;;;3.80;3.13;;;;;;;17.18;75.78;96770.94;7393418;19;20394;-74
2023/05/30 06:47:10;;;;;;;4.20;2.50;;;;;;;17.39;74.97;96747.97;7395677;19;20399;-74
2023/05/30 06:49:37;;;;;;;10.77;3.27;;;;;;;18.14;73.82;96762.38;7393678;19;20356;-74
2023/05/30 06:52:04;;;;;;;6.80;3.20;;;;;;;17.90;72.89;96771.66;7394558;19;20424;-74
2023/05/30 06:54:32;;;;;;;5.00;3.53;;;;;;;17.56;70.59;96773.44;7393731;19;20386;-74
2023/05/30 06:57:02;;;;;;;6.27;3.00;;;;;;;17.49;71.88;96756.50;7396401;19;20387;-74
2023/05/30 06:59:34;;;;;;;3.40;2.70;;;;;;;17.65;71.90;96781.22;7393745;19;20417;-74
2023/05/30 07:02:02;;;;;;;5.47;4.27;;;;;;;17.37;71.54;96746.81;7391794;19;20424;-74
2023/05/30 07:04:29;;;;;;;3.53;2.77;;;;;;;17.53;72.68;96765.38;7393613;19;20912;-74
2023/05/30 07:06:57;;;;;;;5.30;3.87;;;;;;;17.59;71.48;96762.00;7390101;19;20440;-74
2023/05/30 07:09:25;;;;;;;9.23;3.60;;;;;;;17.72;71.27;96755.34;7393521;19;20379;-75
2023/05/30 07:11:52;;;;;;;5.80;2.97;;;;;;;17.88;70.62;96751.72;7391208;19;20404;-74
2023/05/30 07:14:19;;;;;;;7.60;3.07;;;;;;;18.08;72.78;96769.19;7395226;19;20392;-75
2023/05/30 07:16:46;;;;;;;5.27;3.47;;;;;;;18.00;69.92;96760.28;7398617;19;20377;-75
2023/05/30 07:19:13;;;;;;;8.33;4.33;;;;;;;18.26;70.13;96743.38;7402330;19;20397;-74
2023/05/30 07:21:40;;;;;;;8.33;2.73;;;;;;;17.92;68.89;96757.91;7399200;19;20387;-74
2023/05/30 07:24:07;;;;;;;5.03;2.80;;;;;;;18.07;68.28;96754.25;7401061;19;20401;-74
2023/05/30 07:26:34;;;;;;;7.50;3.50;;;;;;;18.64;69.46;96770.22;7397333;19;20356;-75
2023/05/30 07:29:02;;;;;;;6.13;3.87;;;;;;;18.79;68.48;96785.28;7401139;19;20371;-75
2023/05/30 07:31:29;;;;;;;7.37;3.30;;;;;;;18.72;67.54;96761.91;7399083;19;20762;-74
2023/05/30 07:33:56;;;;;;;5.57;3.70;;;;;;;18.95;67.81;96758.25;7401354;19;20409;-74
2023/05/30 07:36:23;;;;;;;4.83;2.80;;;;;;;18.75;66.09;96763.84;7399174;19;20375;-74
2023/05/30 07:38:51;;;;;;;4.20;3.27;;;;;;;18.61;68.20;96759.06;7402140;19;20385;-74
2023/05/30 07:41:17;;;;;;;3.13;2.43;;;;;;;18.58;67.26;96759.03;7399399;19;20377;-74
2023/05/30 07:43:44;;;;;;;2.83;2.63;;;;;;;18.73;67.39;96765.34;7398781;19;20428;-75
2023/05/30 07:46:11;;;;;;;4.20;3.20;;;;;;;19.09;67.96;96769.09;7398514;19;20433;-74
2023/05/30 07:48:40;;;;;;;4.73;3.43;;;;;;;18.70;66.28;96780.25;7403040;19;20379;-74
2023/05/30 07:51:09;;;;;;;7.30;4.40;;;;;;;19.35;65.46;96782.31;7406694;19;20371;-75
2023/05/30 07:53:36;;;;;;;5.63;3.37;;;;;;;19.78;64.72;96774.63;7409537;19;20473;-74
2023/05/30 07:56:03;;;;;;;3.53;3.20;;;;;;;19.74;64.68;96738.91;7406082;19;20445;-75
2023/05/30 07:58:30;;;;;;;5.40;3.27;;;;;;;18.94;64.68;96751.34;7399111;19;20394;-75
2023/05/30 08:00:58;;;;;;;4.53;3.17;;;;;;;18.74;64.69;96742.78;7397821;19;20379;-75
2023/05/30 08:03:25;;;;;;;4.50;3.40;;;;;;;18.73;64.91;96750.03;7400203;19;20406;-74
2023/05/30 08:05:53;;;;;;;6.03;3.00;;;;;;;19.38;65.22;96764.75;7398685;19;20403;-74
2023/05/30 08:08:20;;;;;;;5.73;3.93;;;;;;;20.10;64.89;96760.56;7400678;19;20409;-74
2023/05/30 08:10:47;;;;;;;3.80;3.40;;;;;;;19.71;64.43;96769.19;7398628;19;20720;-75
2023/05/30 08:13:14;;;;;;;3.97;3.00;;;;;;;20.00;63.38;96751.31;7398126;19;21006;-75
2023/05/30 08:15:41;;;;;;;5.03;4.00;;;;;;;19.85;63.21;96745.13;7398921;19;20422;-74
2023/05/30 08:18:09;;;;;;;6.10;4.20;;;;;;;19.81;62.95;96760.44;7396830;19;20423;-75
2023/05/30 08:20:36;;;;;;;7.50;3.97;;;;;;;19.43;63.52;96765.16;7398443;19;20394;-75
2023/05/30 08:23:03;;;;;;;6.40;3.53;;;;;;;19.51;63.13;96781.31;7396954;19;20759;-74
2023/05/30 08:25:33;;;;;;;7.60;3.70;;;;;;;19.36;61.96;96767.00;7397706;19;20722;-75
2023/05/30 08:28:00;;;;;;;6.20;3.80;;;;;;;18.73;63.46;96779.50;7395398;19;20347;-74
2023/05/30 08:30:28;;;;;;;3.57;3.03;;;;;;;19.56;62.72;96773.69;7396868;19;20758;-74
2023/05/30 08:32:55;;;;;;;5.33;3.33;;;;;;;19.77;61.82;96778.44;7395173;19;20427;-75
2023/05/30 08:35:22;;;;;;;6.40;3.80;;;;;;;19.90;61.38;96762.75;7398380;19;20373;-74
2023/05/30 08:37:49;;;;;;;8.23;4.00;;;;;;;19.79;60.31;96711.75;7396414;19;20697;-74
2023/05/30 08:40:17;;;;;;;5.23;3.80;;;;;;;19.71;61.80;96787.97;7398232;19;20403;-74
2023/05/30 08:42:47;;;;;;;7.70;3.80;;;;;;;19.00;61.69;96760.63;7395090;19;20422;-74
2023/05/30 08:45:15;;;;;;;3.90;3.30;;;;;;;19.54;62.17;96783.25;7397623;19;20386;-74
2023/05/30 08:47:43;;;;;;;4.10;3.63;;;;;;;20.07;63.17;96775.53;7397964;19;20898;-74
2023/05/30 08:50:12;;;;;;;7.40;3.40;;;;;;;19.47;62.58;96776.66;7399506;19;20347;-74
2023/05/30 08:52:43;;;;;;;6.90;3.27;;;;;;;19.48;62.12;96766.72;7395684;19;20430;-75
2023/05/30 08:55:16;;;;;;;5.37;3.90;;;;;;;20.35;61.62;96786.38;7399743;19;20367;-74
2023/05/30 08:58:08;;;;;;;6.07;3.60;;;;;;;19.98;60.59;96788.50;7396512;19;20367;-74
2023/05/30 09:00:36;;;;;;;6.17;3.30;;;;;;;19.82;60.13;96788.03;7397428;19;20346;-74
2023/05/30 09:03:05;;;;;;;6.13;3.43;;;;;;;19.75;59.85;96776.09;7397450;19;20371;-75
2023/05/30 09:05:34;;;;;;;6.03;4.07;;;;;;;20.23;60.38;96769.84;7395700;19;20372;-75
2023/05/30 09:08:02;;;;;;;5.47;3.57;;;;;;;20.73;57.08;96789.59;7397642;19;20382;-75
2023/05/30 09:10:29;;;;;;;4.00;3.10;;;;;;;20.17;56.31;96784.78;7395997;19;20373;-75
2023/05/30 09:12:57;;;;;;;5.77;3.83;;;;;;;19.69;57.42;96769.56;7396285;19;20422;-75
2023/05/30 09:15:24;;;;;;;3.90;3.43;;;;;;;20.10;58.73;96769.41;7396193;19;20383;-75
2023/05/30 09:17:51;;;;;;;4.10;3.70;;;;;;;20.28;58.80;96782.88;7397781;19;20398;-75
2023/05/30 09:20:22;;;;;;;4.53;3.37;;;;;;;20.15;57.24;96769.03;7397641;19;20346;-74
2023/05/30 09:22:50;;;;;;;3.47;3.17;;;;;;;20.34;57.29;96773.31;7396542;19;20420;-75
2023/05/30 09:25:17;;;;;;;5.83;3.60;;;;;;;19.31;56.23;96772.72;7397595;19;20882;-74
2023/05/30 09:27:50;;;;;;;6.63;3.77;;;;;;;19.45;57.28;96770.91;7396132;19;20903;-75
2023/05/30 09:30:18;;;;;;;5.60;3.40;;;;;;;20.54;57.43;96800.66;7398118;19;20434;-74
2023/05/30 09:33:02;;;;;;;6.00;3.00;;;;;;;20.26;55.95;96769.84;7395087;19;20398;-75
2023/05/30 09:35:29;;;;;;;5.33;3.67;;;;;;;20.50;57.19;96779.16;7396699;19;20379;-75
2023/05/30 09:38:02;;;;;;;4.90;3.10;;;;;;;20.14;55.76;96762.13;7396412;19;20390;-75
2023/05/30 09:40:30;;;;;;;3.60;3.30;;;;;;;21.27;55.16;96782.38;7394818;19;20383;-75
2023/05/30 09:42:57;;;;;;;3.50;2.90;;;;;;;21.62;55.03;96786.94;7394477;19;20401;-75
2023/05/30 09:45:24;;;;;;;3.73;3.33;;;;;;;20.55;52.52;96794.91;7397167;19;20415;-74
2023/05/30 09:47:52;;;;;;;3.70;3.40;;;;;;;20.23;52.67;96799.38;7395449;19;20387;-75
2023/05/30 09:50:22;;;;;;;7.63;3.67;;;;;;;21.03;53.34;96800.00;7397255;19;20362;-75
2023/05/30 09:52:54;;;;;;;4.77;3.70;;;;;;;21.26;53.07;96798.91;7394257;19;20945;-75
2023/05/30 09:55:24;;;;;;;4.03;3.13;;;;;;;20.74;53.06;96793.81;7398879;19;20351;-74
2023/05/30 09:57:52;;;;;;;6.13;3.07;;;;;;;21.08;53.65;96770.03;7396827;19;20392;-75
2023/05/30 10:00:25;;;;;;;3.53;3.10;;;;;;;21.05;53.92;96789.63;7395268;19;20354;-76
2023/05/30 10:02:54;;;;;;;5.83;3.73;;;;;;;20.59;53.87;96786.88;7394484;19;20398;-75
2023/05/30 10:05:26;;;;;;;6.27;3.90;;;;;;;20.15;53.70;96774.41;7394271;19;20725;-75
2023/05/30 10:07:57;;;;;;;5.87;3.60;;;;;;;20.49;54.22;96784.91;7395566;19;20353;-75
2023/05/30 10:10:24;;;;;;;4.33;3.90;;;;;;;20.64;54.31;96787.25;7395916;19;20355;-74
2023/05/30 10:12:53;;;;;;;8.37;3.57;;;;;;;20.37;53.61;96781.38;7396126;19;20412;-75
2023/05/30 10:15:23;;;;;;;5.27;3.50;;;;;;;20.70;54.25;96768.06;7394822;19;20378;-75
2023/05/30 10:18:06;;;;;;;3.57;3.13;;;;;;;20.50;54.50;96787.22;7397146;19;20383;-75
2023/05/30 10:20:43;;;;;;;8.10;4.63;;;;;;;20.25;53.41;96762.16;7396197;19;20379;-75
2023/05/30 10:23:15;;;;;;;5.00;4.00;;;;;;;20.48;52.76;96775.31;7394961;19;20473;-74
2023/05/30 10:25:54;;;;;;;3.57;3.13;;;;;;;20.15;55.24;96766.34;7396578;19;20388;-74
2023/05/30 10:28:28;;;;;;;3.80;2.93;;;;;;;20.72;51.72;96787.28;7395042;19;20350;-74
2023/05/30 10:30:56;;;;;;;3.80;3.07;;;;;;;21.19;48.69;96786.19;7399681;19;20747;-74
2023/05/30 10:33:25;;;;;;;3.07;2.87;;;;;;;21.56;49.62;96782.34;7394053;19;20434;-74
2023/05/30 10:36:09;;;;;;;4.47;3.50;;;;;;;21.46;51.83;96762.38;7394754;19;20387;-75
2023/05/30 10:39:04;;;;;;;4.23;3.83;;;;;;;21.67;50.77;96753.50;7394724;19;20349;-75
2023/05/30 10:41:56;;;;;;;4.43;3.40;;;;;;;22.03;50.82;96779.16;7394094;19;20380;-74
2023/05/30 10:44:41;;;;;;;7.00;4.70;;;;;;;22.00;51.85;96754.94;7393362;19;20446;-73
2023/05/30 10:47:32;;;;;;;4.67;3.63;;;;;;;22.39;52.69;96771.75;7395084;19;20398;-72
2023/05/30 10:50:04;;;;;;;4.17;3.50;;;;;;;21.67;51.82;96756.97;7394753;19;20365;-73
2023/05/30 10:52:32;;;;;;;4.03;3.60;;;;;;;21.68;51.31;96763.88;7397283;19;20443;-73
2023/05/30 10:55:00;;;;;;;4.30;3.00;;;;;;;21.82;50.93;96749.63;7401907;19;20373;-73
2023/05/30 10:57:33;;;;;;;4.50;3.37;;;;;;;20.68;51.77;96765.75;7400638;19;20716;-74
2023/05/30 11:00:10;;;;;;;6.53;3.40;;;;;;;21.34;51.69;96771.59;7403318;19;20347;-74
2023/05/30 11:02:38;;;;;;;5.40;4.03;;;;;;;21.79;48.17;96753.09;7399192;19;20404;-73
2023/05/30 11:05:09;;;;;;;3.43;2.77;;;;;;;22.37;48.81;96752.50;7401731;19;20944;-73
2023/05/30 11:07:38;;;;;;;3.97;3.67;;;;;;;21.91;47.00;96749.97;7398668;19;20370;-74
2023/05/30 11:10:14;;;;;;;3.73;3.43;;;;;;;22.60;45.66;96745.84;7399462;19;20437;-73
2023/05/30 11:12:47;;;;;;;4.67;3.40;;;;;;;23.76;46.89;96759.59;7399677;19;20964;-72
2023/05/30 11:15:16;;;;;;;3.50;3.20;;;;;;;23.17;45.15;96742.78;7400154;19;20364;-73
2023/05/30 11:17:43;;;;;;;3.67;3.27;;;;;;;22.55;45.42;96755.09;7401565;19;20380;-73
2023/05/30 11:20:21;;;;;;;3.20;2.90;;;;;;;21.98;47.07;96733.03;7400089;19;20910;-73
2023/05/30 11:23:00;;;;;;;4.07;3.20;;;;;;;22.94;46.33;96746.78;7400447;19;20427;-74
2023/05/30 11:25:32;;;;;;;6.97;4.20;;;;;;;23.05;47.89;96752.09;7401663;19;20380;-74
2023/05/30 11:28:06;;;;;;;4.00;2.90;;;;;;;23.95;45.84;96752.06;7396620;19;20401;-73
2023/05/30 11:30:37;;;;;;;4.10;3.10;;;;;;;23.09;45.78;96743.97;7410882;19;20571;-74
2023/05/30 11:33:11;;;;;;;3.57;3.00;;;;;;;23.10;46.29;96743.56;7397959;19;20420;-73
2023/05/30 11:35:38;;;;;;;4.73;3.43;;;;;;;22.09;44.90;96729.16;7400905;19;20340;-73
2023/05/30 11:38:09;;;;;;;3.90;3.00;;;;;;;23.04;44.75;96741.72;7399501;19;20427;-74
2023/05/30 11:40:42;;;;;;;5.60;3.27;;;;;;;22.21;44.58;96716.41;7401127;19;20360;-73